Time;durP1;ratioP1;P1;durP2;ratioP2;P2;SDS_P1;SDS_P2;PMS_P1;PMS_P2;Temp;Humidity;BMP_temperature;BMP_pressure;BME280_temperature;BME280_humidity;BME280_pressure;Samples;Min_cycle;Max_cycle;Signal;HPM_P1;HPM_P2
2022/04/04 00:00:08;;;;;;;4.90;3.10;;;;;;;18.74;41.56;101257.84;4879324;29;20088;-76
2022/04/04 00:02:36;;;;;;;3.70;2.17;;;;;;;18.73;41.59;101254.31;4897930;29;20055;-76
2022/04/04 00:05:04;;;;;;;3.17;2.50;;;;;;;18.74;41.66;101256.00;4897427;29;20048;-76
2022/04/04 00:07:31;;;;;;;3.22;2.50;;;;;;;18.74;41.66;101250.66;4897019;29;20057;-76
2022/04/04 00:09:59;;;;;;;3.50;2.40;;;;;;;18.74;41.77;101257.84;4897982;29;20052;-76
2022/04/04 00:12:27;;;;;;;4.30;2.33;;;;;;;18.73;41.73;101256.16;4897362;28;20052;-76
2022/04/04 00:14:54;;;;;;;3.40;2.80;;;;;;;18.73;41.73;101259.69;4897364;29;20056;-76
2022/04/04 00:17:22;;;;;;;3.00;2.20;;;;;;;18.73;41.69;101253.47;4897029;29;20059;-76
2022/04/04 00:19:49;;;;;;;4.13;2.67;;;;;;;18.73;41.78;101258.81;4880481;29;20052;-76
2022/04/04 00:22:17;;;;;;;4.53;2.42;;;;;;;18.73;41.73;101256.16;4896798;29;20515;-76
2022/04/04 00:24:44;;;;;;;4.15;2.83;;;;;;;18.73;41.69;101256.16;4896941;29;20053;-75
2022/04/04 00:27:12;;;;;;;3.40;2.42;;;;;;;18.72;41.78;101257.97;4896919;28;20416;-76
2022/04/04 00:29:39;;;;;;;3.22;2.40;;;;;;;18.72;41.78;101257.13;4895961;29;20072;-76
2022/04/04 00:32:07;;;;;;;3.05;2.42;;;;;;;18.72;42.00;101262.50;4864905;29;20068;-76
2022/04/04 00:34:34;;;;;;;5.00;2.75;;;;;;;18.73;41.90;101258.81;4880080;29;20055;-76
2022/04/04 00:37:02;;;;;;;2.70;2.30;;;;;;;18.72;41.99;101251.75;4896871;29;20053;-76
2022/04/04 00:39:29;;;;;;;3.78;2.13;;;;;;;18.72;41.95;101254.44;4896673;29;20439;-76
2022/04/04 00:41:56;;;;;;;4.05;2.58;;;;;;;18.72;41.99;101249.06;4897417;29;20056;-76
2022/04/04 00:44:25;;;;;;;3.67;2.53;;;;;;;18.71;42.02;101253.56;4896007;29;20396;-75
2022/04/04 00:46:52;;;;;;;3.13;2.20;;;;;;;18.70;41.91;101254.53;4895448;29;20051;-76
2022/04/04 00:49:20;;;;;;;3.38;2.33;;;;;;;18.72;41.99;101262.50;4896590;29;20116;-76
2022/04/04 00:51:47;;;;;;;4.07;2.53;;;;;;;18.72;42.16;101254.44;4880002;29;20048;-76
2022/04/04 00:54:15;;;;;;;3.70;2.70;;;;;;;18.71;41.97;101255.38;4896879;29;20048;-76
2022/04/04 00:56:43;;;;;;;4.70;2.83;;;;;;;18.71;42.04;101256.25;4896828;29;20040;-76
2022/04/04 00:59:14;;;;;;;3.85;2.60;;;;;;;18.71;42.04;101258.06;4895796;29;20052;-76
2022/04/04 01:01:42;;;;;;;4.05;2.72;;;;;;;18.71;41.94;101256.25;4896945;29;20057;-76
2022/04/04 01:04:11;;;;;;;3.58;2.63;;;;;;;18.71;42.39;101250.03;4896218;29;20048;-76
2022/04/04 01:06:40;;;;;;;3.80;2.60;;;;;;;18.70;42.34;101248.31;4897023;29;20067;-76
2022/04/04 01:09:07;;;;;;;3.28;2.35;;;;;;;18.70;42.09;101251.84;4896527;29;20053;-76
2022/04/04 01:11:35;;;;;;;4.10;2.70;;;;;;;18.70;42.41;101259.06;4896735;29;20049;-76
2022/04/04 01:14:02;;;;;;;3.80;2.88;;;;;;;18.70;42.16;101259.91;4896271;29;20083;-76
2022/04/04 01:16:30;;;;;;;3.28;2.50;;;;;;;18.71;42.24;101266.97;4879405;29;20492;-76
2022/04/04 01:18:58;;;;;;;3.65;2.40;;;;;;;18.70;42.39;101259.91;4895935;29;20053;-75
2022/04/04 01:21:25;;;;;;;3.30;2.42;;;;;;;18.70;42.36;101261.72;4894890;29;20048;-76
2022/04/04 01:23:57;;;;;;;3.08;2.58;;;;;;;18.69;42.52;101258.16;4896195;29;20064;-76
2022/04/04 01:26:25;;;;;;;2.72;2.17;;;;;;;18.70;42.32;101253.69;4896491;29;20052;-75
2022/04/04 01:28:52;;;;;;;4.85;2.55;;;;;;;18.69;42.34;101260.84;4896213;29;20053;-77
2022/04/04 01:31:21;;;;;;;3.35;2.28;;;;;;;18.69;42.26;101254.63;4895339;29;20037;-76
2022/04/04 01:33:48;;;;;;;3.15;2.08;;;;;;;18.69;42.44;101260.84;4896013;29;20055;-76
2022/04/04 01:36:16;;;;;;;3.20;2.10;;;;;;;18.69;42.37;101260.00;4896302;29;20048;-77
2022/04/04 01:38:43;;;;;;;3.47;2.30;;;;;;;18.69;42.19;101254.63;4896147;29;20059;-76
2022/04/04 01:41:11;;;;;;;3.30;2.40;;;;;;;18.69;42.33;101257.31;4879584;29;20056;-76
2022/04/04 01:43:38;;;;;;;2.85;2.13;;;;;;;18.69;42.38;101260.00;4895990;29;20044;-77
2022/04/04 01:46:24;;;;;;;3.92;2.80;;;;;;;18.69;42.54;101255.50;4895771;28;20053;-76
2022/04/04 01:48:55;;;;;;;2.85;2.17;;;;;;;18.68;42.62;101253.78;4879749;29;20052;-76
2022/04/04 01:51:22;;;;;;;3.47;2.70;;;;;;;18.68;42.64;101256.47;4895615;29;20048;-76
2022/04/04 01:53:50;;;;;;;3.25;2.30;;;;;;;18.68;42.66;101259.16;4896284;29;20044;-76
2022/04/04 01:56:20;;;;;;;3.50;2.55;;;;;;;18.69;42.61;101257.31;4895755;29;20048;-77
2022/04/04 01:58:47;;;;;;;3.15;2.35;;;;;;;18.68;42.64;101259.16;4895681;29;20121;-76
2022/04/04 02:01:18;;;;;;;4.90;2.50;;;;;;;18.67;42.54;101265.47;4895595;29;20063;-76
2022/04/04 02:03:48;;;;;;;3.22;2.30;;;;;;;18.69;42.58;101265.38;4879079;29;20053;-76
2022/04/04 02:06:18;;;;;;;3.38;2.13;;;;;;;18.67;42.72;101264.59;4895812;29;20048;-77
2022/04/04 02:08:46;;;;;;;2.78;1.98;;;;;;;18.68;42.56;101258.31;4863623;29;20064;-76
2022/04/04 02:11:16;;;;;;;3.83;2.38;;;;;;;18.67;42.86;101262.78;4896108;29;20472;-76
2022/04/04 02:13:44;;;;;;;3.53;2.60;;;;;;;18.67;42.58;101256.56;4878842;29;20056;-75
2022/04/04 02:16:12;;;;;;;3.28;2.50;;;;;;;18.66;42.42;101263.75;4895816;29;20052;-75
2022/04/04 02:18:39;;;;;;;4.38;2.53;;;;;;;18.67;42.69;101262.78;4879361;29;20049;-76
2022/04/04 02:21:07;;;;;;;3.08;2.35;;;;;;;18.67;42.68;101259.25;4895441;28;20049;-76
2022/04/04 02:23:36;;;;;;;3.90;2.53;;;;;;;18.67;42.64;101261.94;4897013;29;20472;-76
2022/04/04 02:26:04;;;;;;;3.35;2.65;;;;;;;18.66;42.62;101257.53;4899170;29;20128;-77
2022/04/04 02:28:32;;;;;;;3.70;2.63;;;;;;;18.66;42.60;101257.53;4898549;29;20048;-76
2022/04/04 02:31:00;;;;;;;4.28;2.25;;;;;;;18.67;42.64;101267.28;4898495;29;20049;-76
2022/04/04 02:33:27;;;;;;;3.88;2.35;;;;;;;18.66;42.69;101255.72;4898827;29;20053;-77
2022/04/04 02:35:55;;;;;;;4.07;2.40;;;;;;;18.66;42.58;101260.22;4897218;29;20056;-76
2022/04/04 02:38:26;;;;;;;3.22;2.50;;;;;;;18.67;42.76;101267.28;4898398;29;20056;-76
2022/04/04 02:40:55;;;;;;;3.35;2.33;;;;;;;18.67;42.47;101252.06;4898993;29;20052;-76
2022/04/04 02:43:23;;;;;;;3.17;2.13;;;;;;;18.66;42.71;101249.50;4898535;29;20428;-76
2022/04/04 02:45:51;;;;;;;3.78;2.67;;;;;;;18.65;42.58;101259.38;4898635;29;20052;-76
2022/04/04 02:48:20;;;;;;;4.88;2.67;;;;;;;18.66;42.70;101260.22;4898899;29;20461;-75
2022/04/04 02:50:48;;;;;;;4.40;2.47;;;;;;;18.64;42.76;101255.00;4898270;29;20071;-75
2022/04/04 02:53:16;;;;;;;4.13;2.58;;;;;;;18.65;42.90;101253.16;4898617;29;20044;-76
2022/04/04 02:58:30;;;;;;;3.60;2.30;;;;;;;18.65;42.70;101248.66;4898735;29;20048;-76
2022/04/04 03:00:57;;;;;;;5.28;2.20;;;;;;;18.66;42.93;101249.50;4898091;29;20057;-76
2022/04/04 03:03:25;;;;;;;3.42;2.22;;;;;;;18.65;42.71;101245.97;4898632;29;20531;-76
2022/04/04 03:05:53;;;;;;;3.95;2.55;;;;;;;18.64;42.71;101241.59;4898077;29;20059;-76
2022/04/04 03:08:20;;;;;;;4.88;2.55;;;;;;;18.64;42.81;101241.59;4898844;29;20052;-76
2022/04/04 03:10:48;;;;;;;5.13;2.40;;;;;;;18.63;42.62;101245.22;4898559;29;20054;-76
2022/04/04 03:13:15;;;;;;;4.25;2.30;;;;;;;18.64;42.68;101241.59;4897999;29;20057;-76
2022/04/04 03:15:43;;;;;;;3.60;2.47;;;;;;;18.63;42.76;101239.00;4897809;29;20057;-76
2022/04/04 03:18:10;;;;;;;3.67;2.40;;;;;;;18.64;42.76;101246.94;4898376;29;20048;-76
2022/04/04 03:20:38;;;;;;;5.07;2.30;;;;;;;18.63;42.61;101239.84;4898178;29;20049;-77
2022/04/04 03:23:06;;;;;;;3.28;2.10;;;;;;;18.63;42.90;101247.91;4897845;29;20052;-76
2022/04/04 03:25:34;;;;;;;2.80;2.20;;;;;;;18.63;42.70;101250.56;4898734;29;20059;-76
2022/04/04 03:28:01;;;;;;;3.63;2.45;;;;;;;18.63;42.74;101253.25;4881800;29;20511;-76
2022/04/04 03:30:30;;;;;;;6.70;2.40;;;;;;;18.64;42.62;101256.81;4897714;29;20052;-76
2022/04/04 03:32:58;;;;;;;3.63;2.10;;;;;;;18.62;42.76;101256.06;4898183;29;20048;-76
2022/04/04 03:35:28;;;;;;;3.63;2.63;;;;;;;18.62;42.76;101254.25;4897617;29;20048;-76
2022/04/04 03:37:58;;;;;;;3.30;1.98;;;;;;;18.63;42.67;101257.78;4880492;29;20059;-76
2022/04/04 03:40:26;;;;;;;3.50;2.55;;;;;;;18.62;42.69;101259.59;4881015;29;20059;-76
2022/04/04 03:42:56;;;;;;;3.58;1.92;;;;;;;18.62;42.52;101261.44;4897521;29;20048;-76
2022/04/04 03:45:24;;;;;;;3.15;2.45;;;;;;;18.62;42.82;101259.59;4897601;28;20496;-76
2022/04/04 03:47:53;;;;;;;3.28;2.40;;;;;;;18.62;42.87;101253.38;4880872;29;20051;-76
2022/04/04 03:50:21;;;;;;;3.30;2.45;;;;;;;18.62;42.74;101258.75;4897418;29;20518;-76
2022/04/04 03:52:55;;;;;;;3.42;2.65;;;;;;;18.62;42.76;101264.13;4897882;29;20048;-76
2022/04/04 03:55:29;;;;;;;5.18;2.17;;;;;;;18.62;42.76;101258.75;4898202;29;20053;-76
2022/04/04 03:57:57;;;;;;;2.75;2.10;;;;;;;18.61;42.77;101260.59;4880306;29;20045;-76
2022/04/04 04:00:25;;;;;;;3.67;2.20;;;;;;;18.62;42.77;101264.13;4880371;29;20049;-76
2022/04/04 04:02:54;;;;;;;2.92;2.35;;;;;;;18.61;42.75;101263.25;4897957;29;20060;-76
2022/04/04 04:05:21;;;;;;;3.67;2.10;;;;;;;18.60;42.71;101261.56;4897180;29;20048;-75
2022/04/04 04:07:49;;;;;;;4.25;2.40;;;;;;;18.61;42.87;101259.72;4897629;29;20056;-75
2022/04/04 04:10:17;;;;;;;3.22;2.20;;;;;;;18.60;42.71;101261.56;4897823;29;20052;-76
2022/04/04 04:12:45;;;;;;;5.18;2.70;;;;;;;18.62;42.74;101264.97;4897432;29;20055;-76
2022/04/04 04:15:16;;;;;;;4.18;2.35;;;;;;;18.60;42.86;101258.88;4881044;29;20059;-75
2022/04/04 04:17:44;;;;;;;2.85;2.03;;;;;;;18.61;43.07;101267.78;4897827;29;20053;-77
2022/04/04 04:20:20;;;;;;;4.28;2.38;;;;;;;18.60;42.75;101266.94;4897692;29;20045;-75
2022/04/04 04:23:13;;;;;;;2.90;2.50;;;;;;;18.60;42.85;101266.94;4897444;29;20461;-76
2022/04/04 04:25:41;;;;;;;10.40;2.30;;;;;;;18.60;42.85;101266.94;4897173;29;20472;-76
2022/04/04 04:28:09;;;;;;;4.28;2.42;;;;;;;18.61;42.91;101281.19;4896985;29;20049;-75
2022/04/04 04:30:37;;;;;;;3.40;2.30;;;;;;;18.61;42.95;101275.81;4897036;29;20407;-76
2022/04/04 04:33:05;;;;;;;4.65;2.38;;;;;;;18.61;42.87;101273.13;4896941;29;20051;-76
2022/04/04 04:35:33;;;;;;;2.83;2.38;;;;;;;18.60;43.02;101271.44;4896750;29;20048;-75
2022/04/04 04:38:01;;;;;;;5.70;2.20;;;;;;;18.60;43.12;101271.44;4895882;29;20036;-76
2022/04/04 04:40:28;;;;;;;3.08;2.15;;;;;;;18.60;43.03;101277.66;4896666;29;20116;-75
2022/04/04 04:42:56;;;;;;;4.45;2.28;;;;;;;18.59;42.93;101273.22;4896718;29;20048;-75
2022/04/04 04:45:24;;;;;;;3.63;2.60;;;;;;;18.60;43.22;101271.44;4896805;29;20053;-75
2022/04/04 04:47:51;;;;;;;3.78;2.35;;;;;;;18.59;43.17;101272.38;4895198;29;20044;-76
2022/04/04 04:50:21;;;;;;;4.85;2.60;;;;;;;18.59;43.14;101270.56;4896649;29;20400;-76
2022/04/04 04:52:49;;;;;;;4.50;2.65;;;;;;;18.59;43.11;101269.69;4895860;29;20373;-77
2022/04/04 04:55:18;;;;;;;3.60;2.47;;;;;;;18.59;43.15;101281.28;4897386;29;20044;-76
2022/04/04 04:57:47;;;;;;;3.13;2.40;;;;;;;18.58;42.92;101276.91;4896316;29;20051;-76
2022/04/04 05:00:16;;;;;;;3.72;2.35;;;;;;;18.58;43.09;101279.56;4896858;29;20484;-76
2022/04/04 05:02:44;;;;;;;4.65;2.60;;;;;;;18.58;43.21;101284.94;4896875;29;20518;-76
2022/04/04 05:05:11;;;;;;;3.15;2.33;;;;;;;18.58;43.11;101286.78;4897144;29;20477;-76
2022/04/04 05:07:38;;;;;;;5.25;2.28;;;;;;;18.58;43.16;101289.44;4894541;29;20049;-76
2022/04/04 05:10:06;;;;;;;3.22;2.30;;;;;;;18.57;43.11;101280.56;4896370;29;20052;-75
2022/04/04 05:12:33;;;;;;;4.60;2.83;;;;;;;18.57;43.26;101293.97;4895966;29;20389;-76
2022/04/04 05:15:01;;;;;;;3.10;2.05;;;;;;;18.57;43.09;101285.91;4896630;29;20120;-76
2022/04/04 05:17:28;;;;;;;4.68;2.40;;;;;;;18.57;43.22;101290.44;4896602;29;20048;-76
2022/04/04 05:19:58;;;;;;;3.25;2.47;;;;;;;18.57;43.13;101293.13;4895215;29;20049;-75
2022/04/04 05:22:26;;;;;;;3.97;2.30;;;;;;;18.57;43.15;101298.47;4896916;28;20063;-75
2022/04/04 05:24:53;;;;;;;3.55;2.50;;;;;;;18.56;43.21;101299.44;4879216;29;20076;-75
2022/04/04 05:27:20;;;;;;;4.57;2.50;;;;;;;18.56;43.18;101292.25;4879362;29;20051;-76
2022/04/04 05:29:48;;;;;;;3.90;2.40;;;;;;;18.55;43.23;101290.53;4878784;29;20052;-75
2022/04/04 05:32:16;;;;;;;5.32;2.70;;;;;;;18.54;43.35;101295.03;4896067;28;20049;-75
2022/04/04 05:34:44;;;;;;;2.80;2.13;;;;;;;18.56;43.15;101308.34;4896049;29;20056;-75
2022/04/04 05:37:12;;;;;;;3.97;2.20;;;;;;;18.55;43.22;101301.25;4896137;29;20064;-75
2022/04/04 05:39:40;;;;;;;3.80;2.40;;;;;;;18.54;43.20;101303.09;4895662;29;20045;-75
2022/04/04 05:42:07;;;;;;;4.68;2.50;;;;;;;18.55;43.17;101295.88;4896537;29;20044;-76
2022/04/04 05:44:35;;;;;;;4.05;2.65;;;;;;;18.55;43.29;101309.28;4879725;29;20055;-75
2022/04/04 05:47:02;;;;;;;4.53;2.78;;;;;;;18.54;43.25;101305.75;4896196;29;20487;-76
2022/04/04 05:49:30;;;;;;;4.80;2.22;;;;;;;18.53;43.24;101306.75;4895721;29;20051;-76
2022/04/04 05:51:57;;;;;;;5.03;2.45;;;;;;;18.55;43.33;101311.97;4895997;29;20057;-76
2022/04/04 05:54:30;;;;;;;5.53;2.20;;;;;;;18.55;43.32;101311.97;4879283;29;20057;-75
2022/04/04 05:56:58;;;;;;;3.60;2.60;;;;;;;18.54;43.30;101310.28;4895673;29;20048;-76
2022/04/04 05:59:26;;;;;;;3.97;2.50;;;;;;;18.54;43.25;101318.31;4898580;29;20491;-76
2022/04/04 06:01:55;;;;;;;5.20;2.60;;;;;;;18.54;43.36;101318.31;4884418;29;20055;-76
2022/04/04 06:04:23;;;;;;;4.90;2.65;;;;;;;18.54;43.25;101315.63;4899708;29;20361;-75
2022/04/04 06:06:50;;;;;;;3.80;2.00;;;;;;;18.53;43.29;101316.63;4898716;29;20515;-75
2022/04/04 06:09:17;;;;;;;4.38;2.72;;;;;;;18.53;43.36;101322.81;4898785;29;20052;-76
2022/04/04 06:11:45;;;;;;;4.90;2.60;;;;;;;18.53;43.15;101313.94;4883051;29;20048;-76
2022/04/04 06:14:12;;;;;;;3.60;2.33;;;;;;;18.53;43.14;101327.34;4898656;29;20084;-76
2022/04/04 06:16:40;;;;;;;3.60;2.78;;;;;;;18.53;43.28;101324.66;4882889;29;20064;-75
2022/04/04 06:19:10;;;;;;;3.63;2.33;;;;;;;18.53;43.34;101338.91;4898798;29;20052;-76
2022/04/04 06:21:37;;;;;;;3.40;2.10;;;;;;;18.52;43.36;101337.22;4899056;29;20049;-76
2022/04/04 06:24:06;;;;;;;3.10;2.22;;;;;;;18.52;43.27;101339.91;4898803;29;20055;-75
2022/04/04 06:26:33;;;;;;;4.05;2.58;;;;;;;18.52;43.31;101339.91;4899325;28;20488;-75
2022/04/04 06:29:01;;;;;;;4.07;2.63;;;;;;;18.51;43.47;101338.19;4898901;29;20048;-74
2022/04/04 06:31:28;;;;;;;3.78;2.13;;;;;;;18.52;43.29;101339.91;4898778;29;20056;-76
2022/04/04 06:33:56;;;;;;;4.38;2.60;;;;;;;18.52;43.37;101342.56;4881986;29;20053;-76
2022/04/04 06:36:26;;;;;;;3.97;2.40;;;;;;;18.52;43.25;101344.41;4898496;29;20507;-75
2022/04/04 06:38:54;;;;;;;4.28;2.80;;;;;;;18.53;43.27;101340.75;4881422;29;20049;-76
2022/04/04 06:41:21;;;;;;;4.38;2.33;;;;;;;18.53;43.69;101352.31;4899027;29;20052;-75
2022/04/04 06:43:50;;;;;;;5.25;2.60;;;;;;;18.55;43.40;101354.88;4898791;29;20061;-76
2022/04/04 06:46:18;;;;;;;6.82;3.00;;;;;;;18.54;43.48;101356.72;4899139;29;20056;-77
2022/04/04 06:48:48;;;;;;;6.25;3.50;;;;;;;18.53;42.87;101346.97;4898545;29;20072;-76
2022/04/04 06:51:15;;;;;;;6.43;4.47;;;;;;;18.51;42.23;101358.75;4897977;29;20053;-76
2022/04/04 06:53:44;;;;;;;6.20;5.35;;;;;;;18.48;42.08;101353.66;4881617;29;20053;-80
2022/04/04 06:56:12;;;;;;;6.93;4.53;;;;;;;18.44;41.94;101353.00;4898086;29;20048;-76
2022/04/04 06:58:40;;;;;;;6.30;5.47;;;;;;;18.42;41.88;101362.13;4897583;29;20051;-76
2022/04/04 07:01:07;;;;;;;6.82;5.22;;;;;;;18.38;41.61;101357.97;4897655;29;20424;-76
2022/04/04 07:03:35;;;;;;;8.18;5.40;;;;;;;18.37;41.68;101361.63;4897304;29;20083;-78
2022/04/04 07:06:02;;;;;;;8.95;5.53;;;;;;;18.36;41.76;101360.75;4898343;29;20048;-81
2022/04/04 07:08:30;;;;;;;8.43;5.38;;;;;;;18.35;41.57;101359.06;4881446;29;20048;-74
2022/04/04 07:10:57;;;;;;;7.53;5.07;;;;;;;18.33;41.43;101352.94;4897806;29;20048;-78
2022/04/04 07:13:24;;;;;;;6.95;5.82;;;;;;;18.33;41.03;101352.09;4898080;29;20068;-76
2022/04/04 07:15:52;;;;;;;6.65;5.93;;;;;;;18.31;40.85;101345.97;4880698;29;20057;-79
2022/04/04 07:18:19;;;;;;;7.13;5.60;;;;;;;18.27;40.78;101348.91;4897593;29;20048;-74
2022/04/04 07:20:47;;;;;;;7.95;5.43;;;;;;;18.27;41.09;101345.34;4897903;29;20488;-81
2022/04/04 07:23:15;;;;;;;5.50;5.00;;;;;;;18.28;41.28;101347.91;4881292;29;20064;-78
2022/04/04 07:25:42;;;;;;;6.68;5.57;;;;;;;18.28;41.27;101347.91;4898055;29;20048;-78
2022/04/04 07:28:10;;;;;;;6.30;4.82;;;;;;;18.27;41.20;101345.34;4897865;29;20049;-78
2022/04/04 07:30:38;;;;;;;6.47;5.63;;;;;;;18.26;41.26;101341.81;4898123;29;20048;-77
2022/04/04 07:33:08;;;;;;;6.28;4.85;;;;;;;18.29;41.50;101341.59;4897997;29;20060;-79
2022/04/04 07:35:35;;;;;;;6.20;4.72;;;;;;;18.32;41.58;101347.69;4897499;29;20511;-77
2022/04/04 07:38:03;;;;;;;9.98;5.00;;;;;;;18.33;41.61;101354.75;4897828;29;20051;-76
2022/04/04 07:40:30;;;;;;;7.18;4.72;;;;;;;18.34;41.43;101356.47;4898155;29;20518;-78
2022/04/04 07:42:58;;;;;;;7.68;5.10;;;;;;;18.35;41.29;101359.06;4881532;29;20400;-76
2022/04/04 07:45:27;;;;;;;6.88;4.93;;;;;;;18.35;41.12;101352.81;4897999;29;20056;-77
2022/04/04 07:47:56;;;;;;;6.55;5.85;;;;;;;18.37;41.06;101361.63;4897608;29;20400;-74
2022/04/04 07:50:23;;;;;;;6.03;4.53;;;;;;;18.37;40.97;101357.09;4897280;29;20052;-80
2022/04/04 07:52:51;;;;;;;7.10;4.68;;;;;;;18.36;40.88;101359.91;4897889;29;20052;-74
2022/04/04 07:55:19;;;;;;;8.32;4.95;;;;;;;18.36;40.98;101376.84;4897340;29;20045;-75
2022/04/04 07:57:47;;;;;;;6.53;4.55;;;;;;;18.36;40.45;101368.81;4897240;29;20059;-73
2022/04/04 08:00:17;;;;;;;5.75;4.60;;;;;;;18.36;40.65;101367.94;4896761;29;20056;-78
2022/04/04 08:02:45;;;;;;;6.30;4.53;;;;;;;18.36;40.36;101378.69;4897496;29;20056;-75
2022/04/04 08:05:13;;;;;;;6.35;5.03;;;;;;;18.35;40.50;101376.94;4896998;29;20048;-78
2022/04/04 08:07:43;;;;;;;10.32;4.57;;;;;;;18.35;40.45;101368.91;4897176;29;20045;-80
2022/04/04 08:10:11;;;;;;;4.85;4.45;;;;;;;18.35;40.46;101379.63;4897236;29;20048;-76
2022/04/04 08:12:38;;;;;;;7.65;4.38;;;;;;;18.34;40.60;101380.59;4896213;29;20401;-80
2022/04/04 08:15:06;;;;;;;11.15;4.35;;;;;;;18.34;40.86;101373.41;4897403;29;20408;-78
2022/04/04 08:17:33;;;;;;;6.25;4.10;;;;;;;18.35;40.97;101379.63;4897209;29;20053;-76
2022/04/04 08:20:02;;;;;;;4.53;3.83;;;;;;;18.37;40.79;101380.38;4880079;29;20060;-80
2022/04/04 08:22:30;;;;;;;6.30;3.65;;;;;;;18.38;41.15;101380.25;4896229;29;20052;-78
2022/04/04 08:24:57;;;;;;;6.30;3.80;;;;;;;18.40;41.40;101385.53;4897240;29;20397;-77
2022/04/04 08:27:25;;;;;;;4.53;3.22;;;;;;;18.40;41.34;101386.38;4880161;29;20056;-80
2022/04/04 08:29:52;;;;;;;4.82;3.35;;;;;;;18.41;41.63;101379.19;4896883;29;20049;-76
2022/04/04 08:32:19;;;;;;;4.30;3.28;;;;;;;18.43;41.92;101396.00;4897392;29;20048;-80
2022/04/04 08:34:47;;;;;;;4.00;3.25;;;;;;;18.45;41.70;101391.41;4897000;29;20056;-77
2022/04/04 08:37:15;;;;;;;4.35;2.97;;;;;;;18.47;41.79;101394.81;4897156;29;20072;-79
2022/04/04 08:39:47;;;;;;;3.67;3.22;;;;;;;18.48;41.72;101397.41;4896901;29;20045;-78
2022/04/04 08:42:16;;;;;;;4.03;3.13;;;;;;;18.50;41.60;101391.91;4895671;29;20412;-76
2022/04/04 08:44:45;;;;;;;6.05;3.20;;;;;;;18.49;41.79;101395.56;4896574;29;20056;-76
2022/04/04 08:47:12;;;;;;;4.90;2.90;;;;;;;18.50;41.98;101394.59;4895768;29;20052;-76
2022/04/04 08:49:40;;;;;;;4.28;3.10;;;;;;;18.51;41.94;101396.28;4896385;29;20040;-76
2022/04/04 08:52:08;;;;;;;6.40;2.95;;;;;;;18.52;41.98;101390.00;4896404;29;20044;-80
2022/04/04 08:54:35;;;;;;;3.65;2.80;;;;;;;18.51;41.86;101389.13;4895193;29;20056;-77
2022/04/04 08:57:03;;;;;;;5.22;3.15;;;;;;;18.52;41.79;101377.44;4879431;29;20411;-77
2022/04/04 08:59:30;;;;;;;4.32;3.10;;;;;;;18.54;41.83;101388.03;4896237;29;20489;-79
2022/04/04 09:01:57;;;;;;;4.97;3.05;;;;;;;18.54;42.25;101386.19;4896408;29;20052;-82
2022/04/04 09:04:25;;;;;;;5.38;3.60;;;;;;;18.55;42.10;101381.69;4896301;29;20063;-80
2022/04/04 09:06:55;;;;;;;3.97;3.15;;;;;;;18.58;42.05;101391.34;4894460;29;20427;-80
2022/04/04 09:09:41;;;;;;;5.32;3.20;;;;;;;18.59;42.11;101398.41;4893968;29;20505;-78
2022/04/04 09:12:10;;;;;;;3.65;2.70;;;;;;;18.59;42.13;101385.84;4894451;29;20059;-76
2022/04/04 09:14:53;;;;;;;3.67;2.92;;;;;;;18.60;41.87;101387.59;4894249;29;20052;-76
2022/04/04 09:17:24;;;;;;;5.40;2.60;;;;;;;18.62;42.01;101382.09;4895988;29;20052;-78
2022/04/04 09:19:52;;;;;;;4.20;3.00;;;;;;;18.64;41.92;101383.72;4896409;29;20053;-79
2022/04/04 09:22:20;;;;;;;5.40;3.00;;;;;;;18.64;42.04;101381.03;4895919;29;20052;-81
2022/04/04 09:24:52;;;;;;;4.00;2.80;;;;;;;18.65;42.12;101384.56;4895831;29;20059;-79
2022/04/04 09:27:24;;;;;;;5.57;2.95;;;;;;;18.65;41.87;101382.75;4896539;29;20060;-80
2022/04/04 09:29:55;;;;;;;3.92;3.00;;;;;;;18.65;42.09;101384.56;4896422;29;20049;-79
2022/04/04 09:32:39;;;;;;;3.35;2.42;;;;;;;18.66;42.21;101389.81;4894603;29;20052;-79
2022/04/04 09:35:18;;;;;;;3.38;2.58;;;;;;;18.67;42.22;101382.59;4896482;29;20045;-78
2022/04/04 09:37:51;;;;;;;5.28;3.10;;;;;;;18.66;42.23;101387.13;4896180;29;20044;-77
2022/04/04 09:40:27;;;;;;;3.97;2.97;;;;;;;18.67;42.09;101379.94;4895975;29;20040;-74
2022/04/04 09:42:59;;;;;;;3.60;2.80;;;;;;;18.67;42.11;101382.59;4895869;29;20052;-76
2022/04/04 09:45:29;;;;;;;3.08;2.33;;;;;;;18.67;42.40;101382.59;4896016;29;20053;-77
2022/04/04 09:48:08;;;;;;;4.60;2.63;;;;;;;18.67;42.29;101386.16;4895489;29;20072;-77
2022/04/04 09:50:41;;;;;;;4.20;2.42;;;;;;;18.68;42.24;101382.50;4894531;28;20515;-77
2022/04/04 09:53:29;;;;;;;6.00;2.70;;;;;;;18.69;42.54;101376.19;4878839;29;20057;-77
2022/04/04 09:56:00;;;;;;;3.95;3.10;;;;;;;18.70;42.35;101377.06;4895998;29;20056;-77
2022/04/04 09:58:31;;;;;;;3.63;2.80;;;;;;;18.70;42.26;101369.88;4895667;29;20056;-77
2022/04/04 10:01:00;;;;;;;5.30;3.53;;;;;;;18.72;42.54;101372.44;4895606;29;20044;-79
2022/04/04 10:03:30;;;;;;;4.93;3.67;;;;;;;18.72;42.28;101369.78;4894795;29;20067;-76
2022/04/04 10:06:16;;;;;;;7.18;3.45;;;;;;;18.72;42.24;101372.44;4895466;29;20041;-77
2022/04/04 10:08:45;;;;;;;5.30;3.60;;;;;;;18.74;42.37;101378.53;4895454;29;20049;-76
2022/04/04 10:11:12;;;;;;;10.43;3.63;;;;;;;18.74;42.90;101367.81;4895652;29;20052;-76
2022/04/04 10:13:41;;;;;;;6.35;3.80;;;;;;;18.74;42.97;101374.03;4895767;29;20064;-78
2022/04/04 10:16:10;;;;;;;4.97;3.40;;;;;;;18.75;44.46;101364.16;4894305;29;20049;-78
2022/04/04 10:18:41;;;;;;;5.78;4.32;;;;;;;18.73;42.89;101361.59;4895843;29;20053;-79
2022/04/04 10:21:10;;;;;;;4.90;4.20;;;;;;;18.71;45.55;101355.47;4895519;28;20500;-76
2022/04/04 10:23:40;;;;;;;4.40;3.63;;;;;;;18.70;46.48;101359.13;4895938;29;20056;-79
2022/04/04 10:26:08;;;;;;;5.43;3.90;;;;;;;18.70;47.29;101353.78;4879061;29;20496;-78
2022/04/04 10:28:37;;;;;;;4.88;4.05;;;;;;;18.68;47.75;101350.34;4895805;29;20040;-76
2022/04/04 10:31:18;;;;;;;4.97;3.75;;;;;;;18.69;46.71;101345.81;4895023;29;20493;-78
2022/04/04 10:33:47;;;;;;;5.30;4.15;;;;;;;18.67;48.27;101337.88;4895632;29;20048;-79
2022/04/04 10:36:22;;;;;;;9.60;3.67;;;;;;;18.67;48.46;101339.69;4895484;29;20064;-79
2022/04/04 10:38:55;;;;;;;5.57;3.45;;;;;;;18.67;48.44;101343.22;4894578;29;20056;-78
2022/04/04 10:41:26;;;;;;;;;;;;;;;18.67;48.96;101340.56;4896341;29;20044;-76
2022/04/04 10:43:55;;;;;;;6.20;3.70;;;;;;;18.67;48.94;101335.19;4895332;29;20323;-76
2022/04/04 10:46:24;;;;;;;3.97;3.15;;;;;;;18.66;48.93;101327.28;4898057;29;20052;-81
2022/04/04 10:49:06;;;;;;;6.47;3.78;;;;;;;18.67;49.36;101337.03;4897451;29;20416;-80
2022/04/04 10:51:36;;;;;;;5.43;3.28;;;;;;;18.65;49.52;101331.78;4898984;29;20044;-79
2022/04/04 10:54:06;;;;;;;6.03;3.13;;;;;;;18.66;49.16;101328.13;4898223;29;20051;-81
2022/04/04 10:56:33;;;;;;;5.05;3.53;;;;;;;18.66;49.21;101330.81;4897240;29;20064;-79
2022/04/04 10:59:24;;;;;;;5.38;3.50;;;;;;;18.66;48.14;101325.44;4898403;29;20053;-80
2022/04/04 11:01:58;;;;;;;5.57;3.53;;;;;;;18.68;49.66;101323.50;4893232;29;20067;-78
2022/04/04 11:04:37;;;;;;;5.97;3.63;;;;;;;18.65;48.02;101322.88;4881743;29;20385;-78
2022/04/04 11:10:06;;;;;;;7.13;4.75;;;;;;;18.60;46.35;101323.25;4898205;29;20048;-77
2022/04/04 11:12:56;;;;;;;4.85;3.72;;;;;;;18.57;45.26;101317.25;4897674;29;20051;-80
2022/04/04 11:15:43;;;;;;;5.95;4.03;;;;;;;18.54;45.74;101304.91;4882480;29;20489;-80
2022/04/04 11:18:12;;;;;;;5.03;4.53;;;;;;;18.53;45.45;101309.41;4898509;29;20052;-81
2022/04/04 11:20:50;;;;;;;4.55;3.88;;;;;;;18.52;46.83;101318.44;4896402;29;20057;-80
2022/04/04 11:23:18;;;;;;;5.40;3.78;;;;;;;18.54;46.64;101302.22;4898699;29;20141;-77
2022/04/04 11:25:54;;;;;;;6.15;4.30;;;;;;;18.52;46.46;101299.69;4898183;29;20049;-80
2022/04/04 11:28:31;;;;;;;4.82;3.95;;;;;;;18.53;46.41;101304.06;4897883;29;20059;-78
2022/04/04 11:31:09;;;;;;;4.13;3.65;;;;;;;18.54;47.15;101300.41;4882257;28;20059;-77
2022/04/04 11:33:54;;;;;;;4.88;3.58;;;;;;;18.55;49.53;101301.25;4881532;29;20063;-77
2022/04/04 11:36:30;;;;;;;4.25;2.90;;;;;;;18.55;47.55;101298.56;4898173;29;20048;-77
2022/04/04 11:39:07;;;;;;;6.75;4.00;;;;;;;18.51;45.41;101289.94;4897907;29;20067;-77